sensor_id;sensor_type;location;lat;lon;timestamp;P1;durP1;ratioP1;P2;durP2;ratioP2
22778;SDS011;11556;51.194;3.800;2022-07-19T00:01:26;7.15;;;2.17;;
22778;SDS011;11556;51.194;3.800;2022-07-19T00:03:52;2.85;;;2.10;;
22778;SDS011;11556;51.194;3.800;2022-07-19T00:06:17;6.30;;;2.30;;
22778;SDS011;11556;51.194;3.800;2022-07-19T00:08:43;5.05;;;2.40;;
22778;SDS011;11556;51.194;3.800;2022-07-19T00:11:09;3.92;;;2.20;;
22778;SDS011;11556;51.194;3.800;2022-07-19T00:13:34;13.13;;;2.50;;
22778;SDS011;11556;51.194;3.800;2022-07-19T00:16:00;3.70;;;2.38;;
22778;SDS011;11556;51.194;3.800;2022-07-19T00:18:26;5.60;;;2.58;;
22778;SDS011;11556;51.194;3.800;2022-07-19T00:20:52;4.07;;;2.45;;
22778;SDS011;11556;51.194;3.800;2022-07-19T00:23:17;3.97;;;2.42;;
22778;SDS011;11556;51.194;3.800;2022-07-19T00:25:43;2.90;;;2.28;;
22778;SDS011;11556;51.194;3.800;2022-07-19T00:28:09;3.95;;;2.40;;
22778;SDS011;11556;51.194;3.800;2022-07-19T00:30:35;5.75;;;2.60;;
22778;SDS011;11556;51.194;3.800;2022-07-19T00:33:00;5.18;;;2.60;;
22778;SDS011;11556;51.194;3.800;2022-07-19T00:35:29;4.22;;;2.67;;
22778;SDS011;11556;51.194;3.800;2022-07-19T00:37:55;4.60;;;2.70;;
22778;SDS011;11556;51.194;3.800;2022-07-19T00:40:22;4.53;;;2.58;;
22778;SDS011;11556;51.194;3.800;2022-07-19T00:42:48;5.13;;;2.70;;
22778;SDS011;11556;51.194;3.800;2022-07-19T00:45:14;4.07;;;2.33;;
22778;SDS011;11556;51.194;3.800;2022-07-19T00:47:40;5.28;;;2.83;;
22778;SDS011;11556;51.194;3.800;2022-07-19T00:50:06;5.82;;;2.80;;
22778;SDS011;11556;51.194;3.800;2022-07-19T00:52:31;4.63;;;2.50;;
22778;SDS011;11556;51.194;3.800;2022-07-19T00:54:58;5.50;;;2.45;;
22778;SDS011;11556;51.194;3.800;2022-07-19T00:57:24;6.50;;;2.75;;
22778;SDS011;11556;51.194;3.800;2022-07-19T00:59:52;4.03;;;2.42;;
22778;SDS011;11556;51.194;3.800;2022-07-19T01:02:19;4.43;;;2.92;;
22778;SDS011;11556;51.194;3.800;2022-07-19T01:04:45;5.80;;;2.30;;
22778;SDS011;11556;51.194;3.800;2022-07-19T01:07:11;3.72;;;2.30;;
22778;SDS011;11556;51.194;3.800;2022-07-19T01:09:38;6.68;;;2.80;;
22778;SDS011;11556;51.194;3.800;2022-07-19T01:12:05;6.78;;;2.92;;
22778;SDS011;11556;51.194;3.800;2022-07-19T01:14:31;3.72;;;2.55;;
22778;SDS011;11556;51.194;3.800;2022-07-19T01:16:58;7.60;;;2.70;;
22778;SDS011;11556;51.194;3.800;2022-07-19T01:19:24;4.88;;;2.75;;
22778;SDS011;11556;51.194;3.800;2022-07-19T01:21:50;6.40;;;2.85;;
22778;SDS011;11556;51.194;3.800;2022-07-19T01:24:15;5.25;;;2.90;;
22778;SDS011;11556;51.194;3.800;2022-07-19T01:26:41;4.85;;;2.80;;
22778;SDS011;11556;51.194;3.800;2022-07-19T01:29:07;4.45;;;2.78;;
22778;SDS011;11556;51.194;3.800;2022-07-19T01:31:32;6.35;;;2.95;;
22778;SDS011;11556;51.194;3.800;2022-07-19T01:33:58;10.48;;;3.30;;
22778;SDS011;11556;51.194;3.800;2022-07-19T01:36:24;3.92;;;2.97;;
22778;SDS011;11556;51.194;3.800;2022-07-19T01:38:49;6.90;;;3.08;;
22778;SDS011;11556;51.194;3.800;2022-07-19T01:41:15;4.80;;;3.00;;
22778;SDS011;11556;51.194;3.800;2022-07-19T01:43:40;4.38;;;3.00;;
22778;SDS011;11556;51.194;3.800;2022-07-19T01:46:06;4.25;;;3.13;;
22778;SDS011;11556;51.194;3.800;2022-07-19T01:48:32;7.55;;;3.08;;
22778;SDS011;11556;51.194;3.800;2022-07-19T01:50:57;6.75;;;3.20;;
22778;SDS011;11556;51.194;3.800;2022-07-19T01:53:23;6.03;;;3.38;;
22778;SDS011;11556;51.194;3.800;2022-07-19T01:55:49;6.57;;;3.38;;
22778;SDS011;11556;51.194;3.800;2022-07-19T01:58:14;6.50;;;2.88;;
22778;SDS011;11556;51.194;3.800;2022-07-19T02:00:40;9.57;;;3.42;;
22778;SDS011;11556;51.194;3.800;2022-07-19T02:03:06;8.88;;;3.70;;
22778;SDS011;11556;51.194;3.800;2022-07-19T02:05:31;5.30;;;3.28;;
22778;SDS011;11556;51.194;3.800;2022-07-19T02:07:57;6.80;;;3.25;;
22778;SDS011;11556;51.194;3.800;2022-07-19T02:10:23;7.63;;;3.25;;
22778;SDS011;11556;51.194;3.800;2022-07-19T02:12:48;5.88;;;3.33;;
22778;SDS011;11556;51.194;3.800;2022-07-19T02:15:14;4.47;;;3.10;;
22778;SDS011;11556;51.194;3.800;2022-07-19T02:17:40;2.90;;;2.70;;
22778;SDS011;11556;51.194;3.800;2022-07-19T02:20:05;3.47;;;3.17;;
22778;SDS011;11556;51.194;3.800;2022-07-19T02:22:31;3.45;;;2.80;;
22778;SDS011;11556;51.194;3.800;2022-07-19T02:24:57;10.68;;;3.28;;
22778;SDS011;11556;51.194;3.800;2022-07-19T02:27:23;7.97;;;3.35;;
22778;SDS011;11556;51.194;3.800;2022-07-19T02:29:48;7.65;;;2.97;;
22778;SDS011;11556;51.194;3.800;2022-07-19T02:32:14;5.65;;;3.15;;
22778;SDS011;11556;51.194;3.800;2022-07-19T02:34:39;7.68;;;3.38;;
22778;SDS011;11556;51.194;3.800;2022-07-19T02:37:06;4.95;;;3.25;;
22778;SDS011;11556;51.194;3.800;2022-07-19T02:39:32;6.57;;;3.17;;
22778;SDS011;11556;51.194;3.800;2022-07-19T02:41:57;6.78;;;3.55;;
22778;SDS011;11556;51.194;3.800;2022-07-19T02:44:23;5.88;;;3.47;;
22778;SDS011;11556;51.194;3.800;2022-07-19T02:46:48;7.68;;;3.33;;
22778;SDS011;11556;51.194;3.800;2022-07-19T02:49:14;6.90;;;3.47;;
22778;SDS011;11556;51.194;3.800;2022-07-19T02:51:40;4.80;;;3.08;;
22778;SDS011;11556;51.194;3.800;2022-07-19T02:54:06;4.90;;;3.05;;
22778;SDS011;11556;51.194;3.800;2022-07-19T02:56:32;9.48;;;3.38;;
22778;SDS011;11556;51.194;3.800;2022-07-19T02:58:57;3.65;;;3.30;;
22778;SDS011;11556;51.194;3.800;2022-07-19T03:01:23;4.18;;;3.10;;
22778;SDS011;11556;51.194;3.800;2022-07-19T03:03:49;4.72;;;2.92;;
22778;SDS011;11556;51.194;3.800;2022-07-19T03:06:16;5.90;;;3.00;;
22778;SDS011;11556;51.194;3.800;2022-07-19T03:08:43;4.00;;;3.15;;
22778;SDS011;11556;51.194;3.800;2022-07-19T03:11:09;5.47;;;3.55;;
22778;SDS011;11556;51.194;3.800;2022-07-19T03:13:35;7.68;;;3.33;;
22778;SDS011;11556;51.194;3.800;2022-07-19T03:16:01;5.63;;;3.30;;
22778;SDS011;11556;51.194;3.800;2022-07-19T03:18:27;7.55;;;4.13;;
22778;SDS011;11556;51.194;3.800;2022-07-19T03:20:53;6.32;;;3.85;;
22778;SDS011;11556;51.194;3.800;2022-07-19T03:23:20;5.78;;;3.58;;
22778;SDS011;11556;51.194;3.800;2022-07-19T03:25:46;4.82;;;3.75;;
22778;SDS011;11556;51.194;3.800;2022-07-19T03:28:11;7.88;;;3.67;;
22778;SDS011;11556;51.194;3.800;2022-07-19T03:30:37;6.93;;;3.47;;
22778;SDS011;11556;51.194;3.800;2022-07-19T03:33:02;6.35;;;3.47;;
22778;SDS011;11556;51.194;3.800;2022-07-19T03:35:28;5.93;;;3.03;;
22778;SDS011;11556;51.194;3.800;2022-07-19T03:37:54;3.90;;;3.50;;
22778;SDS011;11556;51.194;3.800;2022-07-19T03:40:19;7.13;;;3.20;;
22778;SDS011;11556;51.194;3.800;2022-07-19T03:42:45;4.72;;;3.17;;
22778;SDS011;11556;51.194;3.800;2022-07-19T03:45:10;4.10;;;3.00;;
22778;SDS011;11556;51.194;3.800;2022-07-19T03:47:36;5.32;;;2.80;;
22778;SDS011;11556;51.194;3.800;2022-07-19T03:50:02;5.53;;;2.58;;
22778;SDS011;11556;51.194;3.800;2022-07-19T03:52:29;7.25;;;3.20;;
22778;SDS011;11556;51.194;3.800;2022-07-19T03:54:54;8.38;;;3.03;;
22778;SDS011;11556;51.194;3.800;2022-07-19T03:57:20;5.70;;;3.38;;
22778;SDS011;11556;51.194;3.800;2022-07-19T03:59:46;7.25;;;3.25;;
22778;SDS011;11556;51.194;3.800;2022-07-19T04:02:11;6.35;;;3.13;;
22778;SDS011;11556;51.194;3.800;2022-07-19T04:04:37;10.88;;;3.35;;
22778;SDS011;11556;51.194;3.800;2022-07-19T04:07:02;10.10;;;3.20;;
22778;SDS011;11556;51.194;3.800;2022-07-19T04:09:29;8.55;;;2.63;;
22778;SDS011;11556;51.194;3.800;2022-07-19T04:11:54;9.63;;;3.17;;
22778;SDS011;11556;51.194;3.800;2022-07-19T04:14:20;8.05;;;2.55;;
22778;SDS011;11556;51.194;3.800;2022-07-19T04:16:45;3.63;;;2.70;;
22778;SDS011;11556;51.194;3.800;2022-07-19T04:19:11;6.22;;;2.60;;
22778;SDS011;11556;51.194;3.800;2022-07-19T04:21:37;4.85;;;2.90;;
22778;SDS011;11556;51.194;3.800;2022-07-19T04:24:03;7.15;;;2.80;;
22778;SDS011;11556;51.194;3.800;2022-07-19T04:26:28;4.78;;;2.80;;
22778;SDS011;11556;51.194;3.800;2022-07-19T04:28:54;7.60;;;2.95;;
22778;SDS011;11556;51.194;3.800;2022-07-19T04:31:19;4.05;;;2.60;;
22778;SDS011;11556;51.194;3.800;2022-07-19T04:33:45;4.43;;;2.72;;
22778;SDS011;11556;51.194;3.800;2022-07-19T04:36:11;6.45;;;2.67;;
22778;SDS011;11556;51.194;3.800;2022-07-19T04:38:36;7.10;;;2.88;;
22778;SDS011;11556;51.194;3.800;2022-07-19T04:41:02;6.10;;;2.42;;
22778;SDS011;11556;51.194;3.800;2022-07-19T04:43:27;4.05;;;2.75;;
22778;SDS011;11556;51.194;3.800;2022-07-19T04:45:53;5.28;;;2.78;;
22778;SDS011;11556;51.194;3.800;2022-07-19T04:48:19;4.63;;;2.55;;
22778;SDS011;11556;51.194;3.800;2022-07-19T04:50:44;10.73;;;2.80;;
22778;SDS011;11556;51.194;3.800;2022-07-19T04:53:10;4.20;;;2.30;;
22778;SDS011;11556;51.194;3.800;2022-07-19T04:55:36;6.50;;;2.58;;
22778;SDS011;11556;51.194;3.800;2022-07-19T04:58:03;5.20;;;2.53;;
22778;SDS011;11556;51.194;3.800;2022-07-19T05:00:29;8.52;;;2.50;;
22778;SDS011;11556;51.194;3.800;2022-07-19T05:02:55;8.90;;;2.90;;
22778;SDS011;11556;51.194;3.800;2022-07-19T05:05:21;8.00;;;2.35;;
22778;SDS011;11556;51.194;3.800;2022-07-19T05:07:47;8.98;;;2.53;;
22778;SDS011;11556;51.194;3.800;2022-07-19T05:10:13;10.70;;;2.83;;
22778;SDS011;11556;51.194;3.800;2022-07-19T05:12:39;6.07;;;2.55;;
22778;SDS011;11556;51.194;3.800;2022-07-19T05:15:05;10.02;;;3.08;;
22778;SDS011;11556;51.194;3.800;2022-07-19T05:17:32;6.82;;;2.67;;
22778;SDS011;11556;51.194;3.800;2022-07-19T05:19:58;9.50;;;3.00;;
22778;SDS011;11556;51.194;3.800;2022-07-19T05:22:23;5.53;;;2.70;;
22778;SDS011;11556;51.194;3.800;2022-07-19T05:24:50;4.75;;;2.45;;
22778;SDS011;11556;51.194;3.800;2022-07-19T05:27:17;3.30;;;2.60;;
22778;SDS011;11556;51.194;3.800;2022-07-19T05:29:43;9.32;;;2.83;;
22778;SDS011;11556;51.194;3.800;2022-07-19T05:32:08;9.32;;;2.67;;
22778;SDS011;11556;51.194;3.800;2022-07-19T05:34:34;9.23;;;2.35;;
22778;SDS011;11556;51.194;3.800;2022-07-19T05:37:00;5.82;;;2.20;;
22778;SDS011;11556;51.194;3.800;2022-07-19T05:39:25;5.25;;;2.50;;
22778;SDS011;11556;51.194;3.800;2022-07-19T05:41:51;5.63;;;2.50;;
22778;SDS011;11556;51.194;3.800;2022-07-19T05:44:17;7.82;;;2.65;;
22778;SDS011;11556;51.194;3.800;2022-07-19T05:46:42;5.85;;;2.20;;
22778;SDS011;11556;51.194;3.800;2022-07-19T05:49:08;8.73;;;2.20;;
22778;SDS011;11556;51.194;3.800;2022-07-19T05:51:35;2.92;;;2.17;;
22778;SDS011;11556;51.194;3.800;2022-07-19T05:54:01;6.43;;;2.25;;
22778;SDS011;11556;51.194;3.800;2022-07-19T05:56:28;8.32;;;2.47;;
22778;SDS011;11556;51.194;3.800;2022-07-19T05:58:53;10.80;;;2.53;;
22778;SDS011;11556;51.194;3.800;2022-07-19T06:01:19;7.47;;;2.33;;
22778;SDS011;11556;51.194;3.800;2022-07-19T06:03:48;7.47;;;2.33;;
22778;SDS011;11556;51.194;3.800;2022-07-19T06:06:19;7.55;;;2.70;;
22778;SDS011;11556;51.194;3.800;2022-07-19T06:08:45;8.05;;;2.60;;
22778;SDS011;11556;51.194;3.800;2022-07-19T06:11:11;5.40;;;2.40;;
22778;SDS011;11556;51.194;3.800;2022-07-19T06:13:37;4.03;;;2.38;;
22778;SDS011;11556;51.194;3.800;2022-07-19T06:16:03;9.02;;;2.55;;
22778;SDS011;11556;51.194;3.800;2022-07-19T06:18:29;8.45;;;2.60;;
22778;SDS011;11556;51.194;3.800;2022-07-19T06:20:59;7.35;;;2.60;;
22778;SDS011;11556;51.194;3.800;2022-07-19T06:23:29;8.18;;;2.33;;
22778;SDS011;11556;51.194;3.800;2022-07-19T06:25:55;6.15;;;2.40;;
22778;SDS011;11556;51.194;3.800;2022-07-19T06:28:21;5.57;;;2.15;;
22778;SDS011;11556;51.194;3.800;2022-07-19T06:30:46;4.63;;;2.38;;
22778;SDS011;11556;51.194;3.800;2022-07-19T06:33:12;7.75;;;2.60;;
22778;SDS011;11556;51.194;3.800;2022-07-19T06:35:38;4.80;;;2.47;;
22778;SDS011;11556;51.194;3.800;2022-07-19T06:38:05;10.45;;;2.70;;
22778;SDS011;11556;51.194;3.800;2022-07-19T06:40:31;4.85;;;2.58;;
22778;SDS011;11556;51.194;3.800;2022-07-19T06:42:56;4.10;;;2.42;;
22778;SDS011;11556;51.194;3.800;2022-07-19T06:45:22;5.10;;;2.60;;
22778;SDS011;11556;51.194;3.800;2022-07-19T06:47:48;8.88;;;2.72;;
22778;SDS011;11556;51.194;3.800;2022-07-19T06:50:15;5.63;;;2.58;;
22778;SDS011;11556;51.194;3.800;2022-07-19T06:52:41;8.05;;;3.33;;
22778;SDS011;11556;51.194;3.800;2022-07-19T06:55:06;8.07;;;3.67;;
22778;SDS011;11556;51.194;3.800;2022-07-19T06:57:32;16.80;;;6.93;;
22778;SDS011;11556;51.194;3.800;2022-07-19T06:59:58;14.40;;;7.38;;
22778;SDS011;11556;51.194;3.800;2022-07-19T07:02:24;13.45;;;8.13;;
22778;SDS011;11556;51.194;3.800;2022-07-19T07:04:49;20.33;;;10.00;;
22778;SDS011;11556;51.194;3.800;2022-07-19T07:07:15;17.15;;;10.98;;
22778;SDS011;11556;51.194;3.800;2022-07-19T07:09:41;23.65;;;12.27;;
22778;SDS011;11556;51.194;3.800;2022-07-19T07:12:07;17.27;;;8.50;;
22778;SDS011;11556;51.194;3.800;2022-07-19T07:14:33;15.98;;;5.10;;
22778;SDS011;11556;51.194;3.800;2022-07-19T07:16:59;11.02;;;5.10;;
22778;SDS011;11556;51.194;3.800;2022-07-19T07:19:25;10.88;;;4.28;;
22778;SDS011;11556;51.194;3.800;2022-07-19T07:21:51;12.98;;;4.40;;
22778;SDS011;11556;51.194;3.800;2022-07-19T07:24:17;9.70;;;4.10;;
22778;SDS011;11556;51.194;3.800;2022-07-19T07:26:43;11.20;;;4.53;;
22778;SDS011;11556;51.194;3.800;2022-07-19T07:29:08;12.68;;;5.18;;
22778;SDS011;11556;51.194;3.800;2022-07-19T07:31:34;6.68;;;4.35;;
22778;SDS011;11556;51.194;3.800;2022-07-19T07:34:01;7.40;;;4.15;;
22778;SDS011;11556;51.194;3.800;2022-07-19T07:36:28;13.48;;;5.75;;
22778;SDS011;11556;51.194;3.800;2022-07-19T07:38:53;10.55;;;5.78;;
22778;SDS011;11556;51.194;3.800;2022-07-19T07:41:19;23.88;;;11.02;;
22778;SDS011;11556;51.194;3.800;2022-07-19T07:43:45;16.25;;;7.57;;
22778;SDS011;11556;51.194;3.800;2022-07-19T07:46:10;13.68;;;7.68;;
22778;SDS011;11556;51.194;3.800;2022-07-19T07:48:36;18.55;;;7.13;;
22778;SDS011;11556;51.194;3.800;2022-07-19T07:51:02;16.65;;;7.38;;
22778;SDS011;11556;51.194;3.800;2022-07-19T07:53:28;23.38;;;9.73;;
22778;SDS011;11556;51.194;3.800;2022-07-19T07:55:53;24.63;;;14.05;;
22778;SDS011;11556;51.194;3.800;2022-07-19T07:58:19;26.98;;;11.70;;
22778;SDS011;11556;51.194;3.800;2022-07-19T08:00:44;20.02;;;9.63;;
22778;SDS011;11556;51.194;3.800;2022-07-19T08:03:10;19.38;;;8.57;;
22778;SDS011;11556;51.194;3.800;2022-07-19T08:05:36;16.63;;;7.78;;
22778;SDS011;11556;51.194;3.800;2022-07-19T08:08:02;15.35;;;7.35;;
22778;SDS011;11556;51.194;3.800;2022-07-19T08:10:29;21.45;;;11.32;;
22778;SDS011;11556;51.194;3.800;2022-07-19T08:12:57;14.80;;;6.90;;
22778;SDS011;11556;51.194;3.800;2022-07-19T08:15:22;18.55;;;9.15;;
22778;SDS011;11556;51.194;3.800;2022-07-19T08:17:48;21.52;;;6.88;;
22778;SDS011;11556;51.194;3.800;2022-07-19T08:20:14;19.60;;;7.75;;
22778;SDS011;11556;51.194;3.800;2022-07-19T08:22:40;19.75;;;9.63;;
22778;SDS011;11556;51.194;3.800;2022-07-19T08:25:06;15.10;;;6.88;;
22778;SDS011;11556;51.194;3.800;2022-07-19T08:27:32;16.45;;;8.95;;
22778;SDS011;11556;51.194;3.800;2022-07-19T08:29:58;8.32;;;4.75;;
22778;SDS011;11556;51.194;3.800;2022-07-19T08:32:24;11.50;;;4.72;;
22778;SDS011;11556;51.194;3.800;2022-07-19T08:34:50;15.50;;;8.73;;
22778;SDS011;11556;51.194;3.800;2022-07-19T08:37:16;20.58;;;8.20;;
22778;SDS011;11556;51.194;3.800;2022-07-19T08:39:41;12.55;;;4.93;;
22778;SDS011;11556;51.194;3.800;2022-07-19T08:42:07;7.45;;;2.90;;
22778;SDS011;11556;51.194;3.800;2022-07-19T08:44:35;9.77;;;5.00;;
22778;SDS011;11556;51.194;3.800;2022-07-19T08:47:04;6.90;;;3.00;;
22778;SDS011;11556;51.194;3.800;2022-07-19T08:49:30;6.18;;;2.72;;
22778;SDS011;11556;51.194;3.800;2022-07-19T08:51:55;4.57;;;2.55;;
22778;SDS011;11556;51.194;3.800;2022-07-19T08:54:22;5.97;;;2.70;;
22778;SDS011;11556;51.194;3.800;2022-07-19T08:56:48;6.40;;;2.38;;
22778;SDS011;11556;51.194;3.800;2022-07-19T08:59:32;3.47;;;1.90;;
22778;SDS011;11556;51.194;3.800;2022-07-19T09:01:58;5.32;;;2.13;;
22778;SDS011;11556;51.194;3.800;2022-07-19T09:04:24;8.93;;;2.30;;
22778;SDS011;11556;51.194;3.800;2022-07-19T09:09:20;7.95;;;2.42;;
22778;SDS011;11556;51.194;3.800;2022-07-19T09:11:54;6.20;;;2.80;;
22778;SDS011;11556;51.194;3.800;2022-07-19T09:19:23;11.13;;;2.70;;
22778;SDS011;11556;51.194;3.800;2022-07-19T09:21:54;10.13;;;2.63;;
22778;SDS011;11556;51.194;3.800;2022-07-19T09:24:22;9.05;;;2.80;;
22778;SDS011;11556;51.194;3.800;2022-07-19T09:26:56;9.88;;;2.55;;
22778;SDS011;11556;51.194;3.800;2022-07-19T09:29:27;9.82;;;2.70;;
22778;SDS011;11556;51.194;3.800;2022-07-19T09:31:57;9.75;;;2.40;;
22778;SDS011;11556;51.194;3.800;2022-07-19T09:37:23;6.53;;;2.63;;
22778;SDS011;11556;51.194;3.800;2022-07-19T09:39:53;3.47;;;2.30;;
22778;SDS011;11556;51.194;3.800;2022-07-19T09:42:21;6.43;;;2.35;;
22778;SDS011;11556;51.194;3.800;2022-07-19T09:44:58;5.43;;;2.40;;
22778;SDS011;11556;51.194;3.800;2022-07-19T09:47:39;6.85;;;2.50;;
22778;SDS011;11556;51.194;3.800;2022-07-19T09:50:07;10.10;;;2.93;;
22778;SDS011;11556;51.194;3.800;2022-07-19T09:52:35;5.65;;;2.50;;
22778;SDS011;11556;51.194;3.800;2022-07-19T09:55:05;7.65;;;2.47;;
22778;SDS011;11556;51.194;3.800;2022-07-19T09:57:34;9.05;;;2.40;;
22778;SDS011;11556;51.194;3.800;2022-07-19T10:00:03;11.18;;;2.42;;
22778;SDS011;11556;51.194;3.800;2022-07-19T10:02:32;7.60;;;2.75;;
22778;SDS011;11556;51.194;3.800;2022-07-19T10:05:00;9.13;;;2.85;;
22778;SDS011;11556;51.194;3.800;2022-07-19T10:07:33;10.00;;;2.35;;
22778;SDS011;11556;51.194;3.800;2022-07-19T10:10:03;7.43;;;2.40;;
22778;SDS011;11556;51.194;3.800;2022-07-19T10:12:32;8.30;;;2.65;;
22778;SDS011;11556;51.194;3.800;2022-07-19T10:14:59;9.07;;;2.80;;
22778;SDS011;11556;51.194;3.800;2022-07-19T10:20:14;8.25;;;2.40;;
22778;SDS011;11556;51.194;3.800;2022-07-19T10:22:41;10.43;;;2.65;;
22778;SDS011;11556;51.194;3.800;2022-07-19T10:25:10;11.98;;;2.38;;
22778;SDS011;11556;51.194;3.800;2022-07-19T10:27:44;8.85;;;2.53;;
22778;SDS011;11556;51.194;3.800;2022-07-19T10:32:41;6.28;;;2.72;;
22778;SDS011;11556;51.194;3.800;2022-07-19T10:35:30;7.53;;;2.83;;
22778;SDS011;11556;51.194;3.800;2022-07-19T10:40:40;12.57;;;3.35;;
22778;SDS011;11556;51.194;3.800;2022-07-19T10:43:14;12.15;;;4.00;;
22778;SDS011;11556;51.194;3.800;2022-07-19T10:46:26;13.52;;;2.88;;
22778;SDS011;11556;51.194;3.800;2022-07-19T10:51:27;11.60;;;2.47;;
22778;SDS011;11556;51.194;3.800;2022-07-19T10:53:56;15.25;;;3.47;;
22778;SDS011;11556;51.194;3.800;2022-07-19T10:56:42;8.30;;;3.05;;
22778;SDS011;11556;51.194;3.800;2022-07-19T10:59:29;10.47;;;2.90;;
22778;SDS011;11556;51.194;3.800;2022-07-19T11:02:00;7.90;;;2.75;;
22778;SDS011;11556;51.194;3.800;2022-07-19T11:04:30;11.02;;;2.90;;
22778;SDS011;11556;51.194;3.800;2022-07-19T11:07:30;5.80;;;2.58;;
22778;SDS011;11556;51.194;3.800;2022-07-19T11:09:50;7.85;;;2.58;;
22778;SDS011;11556;51.194;3.800;2022-07-19T11:12:34;7.55;;;2.67;;
22778;SDS011;11556;51.194;3.800;2022-07-19T11:15:07;6.93;;;2.88;;
22778;SDS011;11556;51.194;3.800;2022-07-19T11:17:34;9.20;;;3.08;;
22778;SDS011;11556;51.194;3.800;2022-07-19T11:20:05;12.15;;;3.80;;
22778;SDS011;11556;51.194;3.800;2022-07-19T11:22:37;12.65;;;3.08;;
22778;SDS011;11556;51.194;3.800;2022-07-19T11:25:05;9.50;;;2.53;;
22778;SDS011;11556;51.194;3.800;2022-07-19T11:27:32;12.65;;;2.47;;
22778;SDS011;11556;51.194;3.800;2022-07-19T11:29:58;10.10;;;2.60;;
22778;SDS011;11556;51.194;3.800;2022-07-19T11:32:26;12.95;;;2.40;;
22778;SDS011;11556;51.194;3.800;2022-07-19T11:34:52;7.75;;;2.83;;
22778;SDS011;11556;51.194;3.800;2022-07-19T11:37:26;10.52;;;2.30;;
22778;SDS011;11556;51.194;3.800;2022-07-19T11:39:56;16.02;;;3.15;;
22778;SDS011;11556;51.194;3.800;2022-07-19T11:45:20;9.57;;;2.70;;
22778;SDS011;11556;51.194;3.800;2022-07-19T11:47:49;7.75;;;2.50;;
22778;SDS011;11556;51.194;3.800;2022-07-19T11:50:18;9.15;;;2.63;;
22778;SDS011;11556;51.194;3.800;2022-07-19T11:55:24;9.82;;;2.50;;
22778;SDS011;11556;51.194;3.800;2022-07-19T11:58:07;7.75;;;2.47;;
22778;SDS011;11556;51.194;3.800;2022-07-19T12:00:34;10.13;;;2.50;;
22778;SDS011;11556;51.194;3.800;2022-07-19T12:03:02;8.77;;;2.65;;
22778;SDS011;11556;51.194;3.800;2022-07-19T12:05:33;9.23;;;2.60;;
22778;SDS011;11556;51.194;3.800;2022-07-19T12:08:02;7.97;;;2.65;;
22778;SDS011;11556;51.194;3.800;2022-07-19T12:10:47;8.57;;;2.42;;
22778;SDS011;11556;51.194;3.800;2022-07-19T12:13:32;7.05;;;2.30;;
22778;SDS011;11556;51.194;3.800;2022-07-19T12:15:59;7.22;;;2.17;;
22778;SDS011;11556;51.194;3.800;2022-07-19T12:18:48;7.28;;;2.58;;
22778;SDS011;11556;51.194;3.800;2022-07-19T12:29:20;11.50;;;2.55;;
22778;SDS011;11556;51.194;3.800;2022-07-19T12:31:52;8.85;;;3.05;;
22778;SDS011;11556;51.194;3.800;2022-07-19T12:34:22;7.35;;;2.70;;
22778;SDS011;11556;51.194;3.800;2022-07-19T12:36:48;14.43;;;2.60;;
22778;SDS011;11556;51.194;3.800;2022-07-19T12:39:24;14.10;;;3.15;;
22778;SDS011;11556;51.194;3.800;2022-07-19T12:42:06;8.02;;;2.47;;
22778;SDS011;11556;51.194;3.800;2022-07-19T12:44:33;9.48;;;2.40;;
22778;SDS011;11556;51.194;3.800;2022-07-19T12:46:59;10.48;;;2.80;;
22778;SDS011;11556;51.194;3.800;2022-07-19T12:49:39;8.15;;;2.85;;
22778;SDS011;11556;51.194;3.800;2022-07-19T12:52:06;10.75;;;2.78;;
22778;SDS011;11556;51.194;3.800;2022-07-19T12:54:32;8.63;;;2.70;;
22778;SDS011;11556;51.194;3.800;2022-07-19T12:56:57;11.25;;;2.78;;
22778;SDS011;11556;51.194;3.800;2022-07-19T12:59:23;9.95;;;2.80;;
22778;SDS011;11556;51.194;3.800;2022-07-19T13:02:07;7.90;;;2.55;;
22778;SDS011;11556;51.194;3.800;2022-07-19T13:04:37;8.73;;;2.88;;
22778;SDS011;11556;51.194;3.800;2022-07-19T13:07:05;6.47;;;2.55;;
22778;SDS011;11556;51.194;3.800;2022-07-19T13:09:32;12.00;;;3.55;;
22778;SDS011;11556;51.194;3.800;2022-07-19T13:12:00;12.45;;;4.30;;
22778;SDS011;11556;51.194;3.800;2022-07-19T13:14:28;8.88;;;2.67;;
22778;SDS011;11556;51.194;3.800;2022-07-19T13:16:54;14.07;;;3.40;;
22778;SDS011;11556;51.194;3.800;2022-07-19T13:19:20;12.20;;;3.75;;
22778;SDS011;11556;51.194;3.800;2022-07-19T13:21:45;7.35;;;3.42;;
22778;SDS011;11556;51.194;3.800;2022-07-19T13:24:11;8.55;;;2.63;;
22778;SDS011;11556;51.194;3.800;2022-07-19T13:26:37;17.13;;;3.13;;
22778;SDS011;11556;51.194;3.800;2022-07-19T13:29:03;6.85;;;2.90;;
22778;SDS011;11556;51.194;3.800;2022-07-19T13:31:28;8.70;;;2.75;;
22778;SDS011;11556;51.194;3.800;2022-07-19T13:33:54;4.50;;;2.50;;
22778;SDS011;11556;51.194;3.800;2022-07-19T13:36:20;10.10;;;3.42;;
22778;SDS011;11556;51.194;3.800;2022-07-19T13:38:45;8.20;;;2.90;;
22778;SDS011;11556;51.194;3.800;2022-07-19T13:41:12;9.82;;;3.10;;
22778;SDS011;11556;51.194;3.800;2022-07-19T13:43:39;9.02;;;3.20;;
22778;SDS011;11556;51.194;3.800;2022-07-19T13:46:04;6.32;;;2.80;;
22778;SDS011;11556;51.194;3.800;2022-07-19T13:48:30;9.10;;;2.80;;
22778;SDS011;11556;51.194;3.800;2022-07-19T13:50:56;8.85;;;2.97;;
22778;SDS011;11556;51.194;3.800;2022-07-19T13:53:21;6.35;;;2.53;;
22778;SDS011;11556;51.194;3.800;2022-07-19T13:55:47;6.80;;;2.80;;
22778;SDS011;11556;51.194;3.800;2022-07-19T13:58:13;7.88;;;2.50;;
22778;SDS011;11556;51.194;3.800;2022-07-19T14:00:39;7.50;;;2.90;;
22778;SDS011;11556;51.194;3.800;2022-07-19T14:03:04;10.68;;;2.80;;
22778;SDS011;11556;51.194;3.800;2022-07-19T14:05:30;7.32;;;2.45;;
22778;SDS011;11556;51.194;3.800;2022-07-19T14:07:56;5.00;;;2.63;;
22778;SDS011;11556;51.194;3.800;2022-07-19T14:10:21;7.22;;;2.97;;
22778;SDS011;11556;51.194;3.800;2022-07-19T14:12:47;8.20;;;3.15;;
22778;SDS011;11556;51.194;3.800;2022-07-19T14:15:13;8.38;;;2.70;;
22778;SDS011;11556;51.194;3.800;2022-07-19T14:17:38;7.60;;;3.00;;
22778;SDS011;11556;51.194;3.800;2022-07-19T14:20:05;8.63;;;2.60;;
22778;SDS011;11556;51.194;3.800;2022-07-19T14:22:31;7.18;;;2.47;;
22778;SDS011;11556;51.194;3.800;2022-07-19T14:24:58;9.65;;;3.03;;
22778;SDS011;11556;51.194;3.800;2022-07-19T14:27:24;9.10;;;2.35;;
22778;SDS011;11556;51.194;3.800;2022-07-19T14:29:50;7.32;;;2.70;;
22778;SDS011;11556;51.194;3.800;2022-07-19T14:32:16;7.47;;;2.83;;
22778;SDS011;11556;51.194;3.800;2022-07-19T14:34:42;9.40;;;2.92;;
22778;SDS011;11556;51.194;3.800;2022-07-19T14:37:08;8.57;;;2.35;;
22778;SDS011;11556;51.194;3.800;2022-07-19T14:39:35;8.10;;;2.60;;
22778;SDS011;11556;51.194;3.800;2022-07-19T14:42:02;5.00;;;2.35;;
22778;SDS011;11556;51.194;3.800;2022-07-19T14:44:28;9.88;;;2.85;;
22778;SDS011;11556;51.194;3.800;2022-07-19T14:46:54;7.25;;;3.00;;
22778;SDS011;11556;51.194;3.800;2022-07-19T14:49:20;6.68;;;2.70;;
22778;SDS011;11556;51.194;3.800;2022-07-19T14:51:46;7.80;;;3.08;;
22778;SDS011;11556;51.194;3.800;2022-07-19T14:54:12;7.18;;;2.70;;
22778;SDS011;11556;51.194;3.800;2022-07-19T14:56:37;6.30;;;2.78;;
22778;SDS011;11556;51.194;3.800;2022-07-19T14:59:03;10.45;;;2.70;;
22778;SDS011;11556;51.194;3.800;2022-07-19T15:01:29;9.32;;;2.65;;
22778;SDS011;11556;51.194;3.800;2022-07-19T15:03:55;7.90;;;2.70;;
22778;SDS011;11556;51.194;3.800;2022-07-19T15:06:20;11.73;;;2.88;;
22778;SDS011;11556;51.194;3.800;2022-07-19T15:08:46;3.35;;;2.30;;
22778;SDS011;11556;51.194;3.800;2022-07-19T15:11:12;10.80;;;2.65;;
22778;SDS011;11556;51.194;3.800;2022-07-19T15:13:37;11.27;;;2.80;;
22778;SDS011;11556;51.194;3.800;2022-07-19T15:16:03;9.02;;;2.60;;
22778;SDS011;11556;51.194;3.800;2022-07-19T15:18:29;7.07;;;2.40;;